| time (UTC) | temp F | wind direction | speed knots | gust knots | rain 1hr in | rain 24hr in | rain mn in | humidity % | barometer mb |
| 20260505064042 | 47 | 190 | 0.0 | 0.0 | 0.00 | 0.21 | 0.00 | 91 | 1010.8 |
| 20260505063106 | 47 | 190 | 0.0 | 0.0 | 0.00 | 0.21 | 0.00 | 89 | 1010.6 |
| 20260505063024 | 47 | 190 | 0.0 | 0.0 | 0.00 | 0.21 | 0.00 | 89 | 1010.6 |
| 20260505062130 | 47 | 190 | 0.0 | 0.0 | 0.00 | 0.21 | 0.00 | 89 | 1010.6 |
| 20260505061049 | 47 | 190 | 0.0 | 0.0 | 0.00 | 0.21 | 0.00 | 87 | 1010.7 |
| 20260505060029 | 47 | 190 | 0.0 | 1.7 | 0.00 | 0.21 | 0.00 | 87 | 1010.6 |
| 20260505055031 | 47 | 190 | 0.9 | 1.7 | 0.00 | 0.21 | 0.21 | 87 | 1010.7 |
| 20260505054054 | 47 | 190 | 0.0 | 1.7 | 0.00 | 0.21 | 0.21 | 86 | 1010.6 |
| 20260505053013 | 47 | 190 | 0.9 | 1.7 | 0.00 | 0.21 | 0.21 | 86 | 1010.4 |
| 20260505052036 | 47 | 190 | 0.0 | 0.0 | 0.00 | 0.21 | 0.21 | 86 | 1010.4 |
| 20260505051017 | 47 | 190 | 0.0 | 1.7 | 0.00 | 0.21 | 0.21 | 85 | 1010.3 |
| 20260505041052 | 48 | 210 | 5.2 | 8.7 | 0.04 | 0.21 | 0.21 | 84 | 1010.7 |
| 20260505040033 | 48 | 197 | 7.0 | 8.7 | 0.06 | 0.21 | 0.21 | 85 | 1010.5 |
| 20260505035118 | 48 | 195 | 5.2 | 9.6 | 0.08 | 0.21 | 0.21 | 85 | 1010.5 |
| 20260505034100 | 48 | 196 | 7.8 | 9.6 | 0.10 | 0.20 | 0.20 | 85 | 1010.3 |
| 20260505034018 | 48 | 196 | 7.8 | 9.6 | 0.10 | 0.20 | 0.20 | 85 | 1010.3 |
| 20260505033103 | 49 | 202 | 7.8 | 12.2 | 0.12 | 0.19 | 0.19 | 85 | 1010.6 |
| 20260505033020 | 49 | 202 | 7.8 | 12.2 | 0.12 | 0.19 | 0.19 | 85 | 1010.6 |
| 20260505032105 | 49 | 203 | 6.1 | 7.8 | 0.13 | 0.18 | 0.18 | 86 | 1010.6 |
| 20260505032023 | 49 | 203 | 6.1 | 7.8 | 0.13 | 0.18 | 0.18 | 86 | 1010.6 |
| 20260505031129 | 49 | 224 | 7.0 | 8.7 | 0.13 | 0.17 | 0.17 | 85 | 1010.4 |
| 20260505030111 | 49 | 234 | 6.1 | 7.8 | 0.11 | 0.15 | 0.15 | 86 | 1010.3 |
| 20260505025030 | 49 | 221 | 4.3 | 6.1 | 0.09 | 0.13 | 0.13 | 85 | 1010.2 |
| 20260505024011 | 49 | 235 | 1.7 | 3.5 | 0.06 | 0.10 | 0.10 | 83 | 1010.0 |
| 20260505023016 | 49 | 278 | 0.9 | 1.7 | 0.03 | 0.07 | 0.07 | 81 | 1009.9 |
| 20260505022118 | 50 | 321 | 0.0 | 1.7 | 0.01 | 0.05 | 0.05 | 78 | 1009.7 |
| 20260505022036 | 50 | 321 | 0.0 | 1.7 | 0.01 | 0.05 | 0.05 | 78 | 1009.7 |
| 20260505021038 | 51 | 342 | 0.0 | 1.7 | 0.00 | 0.04 | 0.04 | 73 | 1009.6 |
| 20260505020023 | 51 | 342 | 0.0 | 1.7 | 0.00 | 0.04 | 0.04 | 72 | 1009.7 |
| 20260505015025 | 51 | 342 | 0.0 | 2.6 | 0.00 | 0.04 | 0.04 | 73 | 1009.6 |
| 20260505014111 | 52 | 286 | 0.9 | 7.0 | 0.00 | 0.04 | 0.04 | 69 | 1009.5 |
| 20260505013114 | 52 | 327 | 3.5 | 8.7 | 0.00 | 0.04 | 0.04 | 69 | 1009.2 |
| 20260505013032 | 52 | 327 | 3.5 | 8.7 | 0.00 | 0.04 | 0.04 | 69 | 1009.2 |
| 20260505012030 | 53 | 314 | 3.5 | 12.2 | 0.00 | 0.04 | 0.04 | 67 | 1009.4 |
| 20260505011014 | 53 | 327 | 5.2 | 10.4 | 0.00 | 0.04 | 0.04 | 64 | 1009.2 |
| 20260505010015 | 55 | 360 | 3.5 | 12.2 | 0.00 | 0.04 | 0.04 | 62 | 1009.2 |
| 20260505005100 | 57 | 302 | 2.6 | 5.2 | 0.00 | 0.04 | 0.04 | 60 | 1009.1 |
| 20260505004102 | 57 | 339 | 0.9 | 5.2 | 0.00 | 0.04 | 0.04 | 60 | 1008.9 |
| 20260505003022 | 58 | 344 | 2.6 | 5.2 | 0.00 | 0.04 | 0.04 | 60 | 1008.9 |
| 20260505002045 | 58 | 322 | 0.0 | 2.6 | 0.00 | 0.04 | 0.04 | 61 | 1008.9 |
| 20260505001026 | 58 | 322 | 0.9 | 2.6 | 0.00 | 0.04 | 0.04 | 58 | 1008.6 |
| 20260505000132 | 57 | 322 | 0.0 | 1.7 | 0.00 | 0.04 | 0.04 | 63 | 1008.6 |
| 20260505000028 | 57 | 322 | 0.0 | 1.7 | 0.00 | 0.04 | 0.04 | 63 | 1008.6 |
| 20260504235030 | 57 | 322 | 0.9 | 1.7 | 0.02 | 0.04 | 0.04 | 65 | 1008.9 |
| 20260504234114 | 56 | 312 | 1.7 | 3.5 | 0.02 | 0.04 | 0.04 | 65 | 1008.8 |
| 20260504234011 | 56 | 312 | 1.7 | 3.5 | 0.02 | 0.04 | 0.04 | 65 | 1008.8 |
| 20260504232036 | 57 | 341 | 1.7 | 2.6 | 0.02 | 0.04 | 0.04 | 65 | 1008.5 |
| 20260504231039 | 55 | 295 | 0.0 | 4.3 | 0.02 | 0.04 | 0.04 | 68 | 1008.7 |
| 20260504225023 | 60 | 265 | 2.6 | 8.7 | 0.00 | 0.02 | 0.02 | 50 | 1008.7 |
| 20260504224129 | 59 | 217 | 7.8 | 10.4 | 0.00 | 0.02 | 0.02 | 50 | 1008.7 |
| 20260504224046 | 59 | 217 | 7.8 | 10.4 | 0.00 | 0.02 | 0.02 | 50 | 1008.7 |
| 20260504223050 | 60 | 244 | 6.1 | 7.8 | 0.00 | 0.02 | 0.02 | 51 | 1008.7 |
| 20260504222053 | 61 | 288 | 0.9 | 1.7 | 0.00 | 0.02 | 0.02 | 46 | 1008.3 |
| 20260504221055 | 62 | 345 | 1.7 | 3.5 | 0.00 | 0.02 | 0.02 | 47 | 1007.6 |
| 20260504220035 | 62 | 344 | 1.7 | 5.2 | 0.00 | 0.02 | 0.02 | 48 | 1007.3 |
| 20260504215122 | 61 | 329 | 1.7 | 5.2 | 0.00 | 0.02 | 0.02 | 44 | 1007.0 |
| 20260504215039 | 61 | 329 | 1.7 | 5.2 | 0.00 | 0.02 | 0.02 | 44 | 1007.0 |
| 20260504214125 | 62 | 5 | 1.7 | 5.2 | 0.02 | 0.02 | 0.02 | 47 | 1007.4 |
| 20260504214042 | 62 | 5 | 1.7 | 5.2 | 0.02 | 0.02 | 0.02 | 47 | 1007.4 |
| 20260504213022 | 63 | 340 | 2.6 | 10.4 | 0.02 | 0.02 | 0.02 | 49 | 1007.6 |
| 20260504212129 | 63 | 65 | 5.2 | 9.6 | 0.02 | 0.02 | 0.02 | 47 | 1007.7 |
| 20260504211050 | 61 | 344 | 3.5 | 8.7 | 0.02 | 0.02 | 0.02 | 51 | 1007.9 |
| 20260504210135 | 57 | 337 | 2.6 | 12.2 | 0.02 | 0.02 | 0.02 | 61 | 1008.2 |
| 20260504210031 | 57 | 337 | 2.6 | 12.2 | 0.02 | 0.02 | 0.02 | 61 | 1008.2 |
| 20260504205033 | 55 | 330 | 4.3 | 11.3 | 0.02 | 0.02 | 0.02 | 64 | 1008.2 |
| 20260504204013 | 63 | 17 | 4.3 | 8.7 | 0.00 | 0.00 | 0.00 | 42 | 1008.0 |
| 20260504203017 | 67 | 11 | 2.6 | 10.4 | 0.00 | 0.00 | 0.00 | 29 | 1008.0 |
| 20260504202018 | 68 | 192 | 7.0 | 11.3 | 0.00 | 0.00 | 0.00 | 27 | 1007.1 |
| 20260504201042 | 69 | 174 | 5.2 | 14.8 | 0.00 | 0.00 | 0.00 | 27 | 1007.2 |
| 20260504200044 | 71 | 322 | 0.9 | 7.8 | 0.00 | 0.00 | 0.00 | 25 | 1006.7 |
| 20260504195130 | 72 | 311 | 3.5 | 8.7 | 0.00 | 0.00 | 0.00 | 25 | 1006.7 |
| 20260504195027 | 72 | 311 | 3.5 | 8.7 | 0.00 | 0.00 | 0.00 | 25 | 1006.7 |
| 20260504194110 | 73 | 290 | 5.2 | 12.2 | 0.00 | 0.00 | 0.00 | 26 | 1006.6 |
| 20260504193029 | 72 | 15 | 4.3 | 10.4 | 0.00 | 0.00 | 0.00 | 24 | 1006.6 |
| 20260504192053 | 72 | 336 | 3.5 | 10.4 | 0.00 | 0.00 | 0.00 | 24 | 1006.5 |
| 20260504191116 | 72 | 254 | 2.6 | 7.0 | 0.00 | 0.00 | 0.00 | 22 | 1006.6 |
| 20260504190015 | 74 | 263 | 5.2 | 9.6 | 0.00 | 0.00 | 0.00 | 19 | 1006.7 |
| 20260504185040 | 76 | 263 | 3.5 | 8.7 | 0.00 | 0.00 | 0.00 | 20 | 1006.8 |
| 20260504184104 | 75 | 271 | 3.5 | 12.2 | 0.00 | 0.00 | 0.00 | 21 | 1006.9 |
| 20260504183107 | 74 | 283 | 5.2 | 11.3 | 0.00 | 0.00 | 0.00 | 23 | 1007.0 |
| 20260504183025 | 74 | 283 | 5.2 | 11.3 | 0.00 | 0.00 | 0.00 | 23 | 1007.0 |
| 20260504182109 | 73 | 315 | 3.5 | 13.0 | 0.00 | 0.00 | 0.00 | 27 | 1007.3 |
| 20260504181029 | 70 | 218 | 7.0 | 13.0 | 0.00 | 0.00 | 0.00 | 25 | 1007.5 |
| 20260504180014 | 70 | 310 | 7.0 | 13.0 | 0.00 | 0.00 | 0.00 | 27 | 1007.6 |
| 20260504174100 | 69 | 286 | 8.7 | 13.9 | 0.00 | 0.00 | 0.00 | 28 | 1008.0 |
| 20260504173103 | 68 | 300 | 4.3 | 13.0 | 0.00 | 0.00 | 0.00 | 31 | 1008.2 |
| 20260504172126 | 67 | 235 | 5.2 | 13.0 | 0.00 | 0.00 | 0.00 | 29 | 1008.5 |
| 20260504172043 | 67 | 235 | 5.2 | 13.0 | 0.00 | 0.00 | 0.00 | 29 | 1008.5 |
| 20260504171025 | 66 | 255 | 7.0 | 13.9 | 0.00 | 0.00 | 0.00 | 29 | 1008.5 |
| 20260504170105 | 66 | 263 | 5.2 | 12.2 | 0.00 | 0.00 | 0.00 | 30 | 1008.6 |
| 20260504151111 | 63 | 250 | 1.7 | 7.8 | 0.00 | 0.00 | 0.00 | 30 | 1008.7 |
| 20260504151029 | 63 | 250 | 1.7 | 7.8 | 0.00 | 0.00 | 0.00 | 30 | 1008.7 |
| 20260504141101 | 62 | 216 | 10.4 | 17.4 | 0.00 | 0.00 | 0.00 | 28 | 1008.5 |
| 20260504141019 | 62 | 216 | 10.4 | 17.4 | 0.00 | 0.00 | 0.00 | 28 | 1008.5 |
| 20260504081109 | 50 | 98 | 0.0 | 2.6 | 0.00 | 0.00 | 0.00 | 40 | 1009.6 |
| 20260504080107 | 49 | 109 | 0.9 | 1.7 | 0.00 | 0.00 | 0.00 | 41 | 1009.8 |
| 20260504070127 | 51 | 337 | 0.0 | 0.0 | 0.00 | 0.00 | 0.00 | 41 | 1010.4 |